createdAt,value
2023-02-19T00:01:46.851Z,4.27
2023-02-19T00:11:48.732Z,4.03
2023-02-19T00:21:53.951Z,4.90
2023-02-19T00:31:56.087Z,4.50
2023-02-19T00:41:59.371Z,5.10
2023-02-19T00:52:01.015Z,5.30
2023-02-19T01:02:03.227Z,5.07
2023-02-19T01:12:06.075Z,5.83
2023-02-19T01:22:07.696Z,5.50
2023-02-19T01:32:09.544Z,5.10
2023-02-19T01:42:15.233Z,5.47
2023-02-19T01:52:22.957Z,5.20
2023-02-19T02:02:27.306Z,4.80
2023-02-19T02:12:29.407Z,5.10
2023-02-19T02:23:16.228Z,5.37
2023-02-19T02:33:26.837Z,4.10
2023-02-19T02:43:28.671Z,4.80
2023-02-19T02:54:06.101Z,3.90
2023-02-19T03:04:14.267Z,3.23
2023-02-19T03:14:39.820Z,3.30
2023-02-19T12:29:07.311Z,1.40
2023-02-19T12:39:23.146Z,1.50
2023-02-19T12:49:36.319Z,1.50
2023-02-19T12:59:52.040Z,1.57
2023-02-19T13:10:03.365Z,1.90
2023-02-19T13:20:39.221Z,2.00
2023-02-19T13:31:14.172Z,2.30
2023-02-19T13:41:31.258Z,2.70
2023-02-19T13:51:45.627Z,2.50
2023-02-19T14:01:53.072Z,2.80
2023-02-19T14:12:15.329Z,2.67
2023-02-19T14:22:49.695Z,2.30
2023-02-19T14:33:02.867Z,2.50
2023-02-19T14:43:20.501Z,2.67
2023-02-19T14:53:24.552Z,2.23
2023-02-19T15:03:30.099Z,2.50
2023-02-19T15:13:32.007Z,2.30
2023-02-19T15:23:35.893Z,2.63
2023-02-19T15:33:37.538Z,2.30
2023-02-19T15:44:14.813Z,2.77
2023-02-19T15:54:43.519Z,3.60
2023-02-19T16:04:45.844Z,2.50
2023-02-19T16:14:49.175Z,2.60
2023-02-19T16:24:57.853Z,2.63
2023-02-19T16:34:59.515Z,2.40
2023-02-19T16:45:01.141Z,2.60
2023-02-19T16:55:03.847Z,2.33
2023-02-19T17:05:05.659Z,2.40
2023-02-19T17:15:07.715Z,2.10
2023-02-19T17:25:09.917Z,1.50
2023-02-19T17:35:11.570Z,1.70
2023-02-19T17:45:13.285Z,1.70
2023-02-19T17:55:18.318Z,1.80
2023-02-19T18:05:20.253Z,1.90
2023-02-19T18:15:26.746Z,1.80
2023-02-19T18:25:28.812Z,1.80
2023-02-19T18:35:30.449Z,1.67
2023-02-19T18:45:35.244Z,1.97
2023-02-19T18:55:37.120Z,2.30
2023-02-19T19:05:38.765Z,1.93
2023-02-19T19:19:35.134Z,2.03
2023-02-19T19:29:36.903Z,2.40
2023-02-19T19:39:38.664Z,2.10
2023-02-19T19:49:41.067Z,2.00
2023-02-19T19:59:42.945Z,2.10
2023-02-19T20:09:49.324Z,2.10
2023-02-19T20:19:51.463Z,2.57
2023-02-19T20:29:53.049Z,2.80
2023-02-19T20:39:54.821Z,3.20
2023-02-19T20:49:56.464Z,3.30
2023-02-19T20:59:58.664Z,3.43
2023-02-19T21:14:38.523Z,3.23
2023-02-19T21:24:40.169Z,3.30
2023-02-19T21:34:42.728Z,2.80
2023-02-19T21:44:44.344Z,3.83
2023-02-19T21:54:45.988Z,3.00
2023-02-19T22:04:53.529Z,3.40
2023-02-19T22:18:59.253Z,3.47
2023-02-19T22:29:08.733Z,3.37
2023-02-19T22:39:22.253Z,3.47
2023-02-19T22:55:41.610Z,3.80
2023-02-19T23:05:43.328Z,4.00
2023-02-19T23:15:44.932Z,4.53
2023-02-19T23:25:46.542Z,3.97
2023-02-19T23:35:48.142Z,3.93
2023-02-19T23:45:49.790Z,4.13
2023-02-19T23:55:51.710Z,4.30
